Time,TemperatureF,DewpointF,PressureIn,WindDirection,WindDirectionDegrees,WindSpeedMPH,WindSpeedGustMPH,Humidity,HourlyPrecipIn,Conditions,Clouds,dailyrainin,SoftwareType,DateUTC
2013-06-23 00:01:00,65.3,61.7,30.21,WSW,248,4.0,8.0,88,0.00,,,0.00,meteohub,2013-06-23 04:01:00,
2013-06-23 00:02:00,65.3,61.7,30.21,WSW,248,4.0,8.0,88,0.00,,,0.00,meteohub,2013-06-23 04:02:00,
2013-06-23 00:03:00,65.1,61.5,30.21,West,270,4.0,8.0,88,0.00,,,0.00,meteohub,2013-06-23 04:03:00,
2013-06-23 00:05:00,65.1,61.5,30.21,West,270,4.0,8.0,88,0.00,,,0.00,meteohub,2013-06-23 04:05:00,
2013-06-23 00:10:00,65.1,61.5,30.21,West,270,4.0,4.0,88,0.00,,,0.00,meteohub,2013-06-23 04:10:00,
2013-06-23 00:13:00,65.3,61.7,30.21,West,270,4.0,4.0,88,0.00,,,0.00,meteohub,2013-06-23 04:13:00,
2013-06-23 00:18:00,65.3,61.7,30.21,West,270,5.0,5.0,88,0.00,,,0.00,meteohub,2013-06-23 04:18:00,
2013-06-23 00:24:00,65.1,61.5,30.22,West,270,4.0,8.0,88,0.00,,,0.00,meteohub,2013-06-23 04:24:00,
2013-06-23 00:29:00,65.1,61.5,30.22,West,270,4.0,8.0,88,0.00,,,0.00,meteohub,2013-06-23 04:29:00,
2013-06-23 00:34:00,65.1,61.9,30.22,WSW,248,4.0,8.0,89,0.00,,,0.00,meteohub,2013-06-23 04:34:00,
2013-06-23 00:39:00,65.1,61.5,30.22,WSW,248,7.0,7.0,88,0.00,,,0.00,meteohub,2013-06-23 04:39:00,
2013-06-23 00:44:00,65.1,61.5,30.21,West,270,4.0,6.0,88,0.00,,,0.00,meteohub,2013-06-23 04:44:00,
2013-06-23 00:49:00,65.1,61.5,30.21,WSW,248,6.0,7.0,88,0.00,,,0.00,meteohub,2013-06-23 04:49:00,
2013-06-23 00:54:00,65.1,61.5,30.21,WSW,248,4.0,7.0,88,0.00,,,0.00,meteohub,2013-06-23 04:54:00,
2013-06-23 00:59:00,65.3,61.7,30.21,West,270,4.0,6.0,88,0.00,,,0.00,meteohub,2013-06-23 04:59:00,
2013-06-23 01:04:00,65.1,61.9,30.20,WSW,248,4.0,6.0,89,0.00,,,0.00,meteohub,2013-06-23 05:04:00,
2013-06-23 01:09:00,65.1,61.9,30.20,West,270,4.0,6.0,89,0.00,,,0.00,meteohub,2013-06-23 05:09:00,
2013-06-23 01:14:00,65.1,61.9,30.20,West,270,4.0,6.0,89,0.00,,,0.00,meteohub,2013-06-23 05:14:00,
2013-06-23 01:20:00,64.9,61.7,30.20,WNW,293,4.0,5.0,89,0.00,,,0.00,meteohub,2013-06-23 05:20:00,
2013-06-23 01:25:00,64.9,61.7,30.20,WSW,248,5.0,5.0,89,0.00,,,0.00,meteohub,2013-06-23 05:25:00,
2013-06-23 01:30:00,64.9,61.7,30.20,NW,315,0.0,5.0,89,0.00,,,0.00,meteohub,2013-06-23 05:30:00,
2013-06-23 01:35:00,65.1,61.9,30.20,WNW,293,3.0,5.0,89,0.00,,,0.00,meteohub,2013-06-23 05:35:00,
2013-06-23 01:40:00,65.3,62.1,30.20,West,270,3.0,4.0,89,0.00,,,0.00,meteohub,2013-06-23 05:40:00,
2013-06-23 01:45:00,65.1,61.9,30.20,West,270,5.0,5.0,89,0.00,,,0.00,meteohub,2013-06-23 05:45:00,
2013-06-23 01:50:00,65.3,62.1,30.20,West,270,3.0,5.0,89,0.00,,,0.00,meteohub,2013-06-23 05:50:00,
2013-06-23 01:55:00,65.1,61.9,30.20,SW,225,2.0,5.0,89,0.00,,,0.00,meteohub,2013-06-23 05:55:00,
2013-06-23 02:00:00,65.1,61.9,30.20,West,270,4.0,5.0,89,0.00,,,0.00,meteohub,2013-06-23 06:00:00,
2013-06-23 02:01:00,65.1,61.9,30.20,West,270,4.0,5.0,89,0.00,,,0.00,meteohub,2013-06-23 06:01:00,
2013-06-23 02:06:00,65.3,62.1,30.20,WSW,248,5.0,5.0,89,0.00,,,0.00,meteohub,2013-06-23 06:06:00,
2013-06-23 02:12:00,65.3,62.1,30.20,WSW,248,5.0,6.0,89,0.00,,,0.00,meteohub,2013-06-23 06:12:00,
2013-06-23 02:17:00,65.3,62.1,30.20,West,270,3.0,6.0,89,0.00,,,0.00,meteohub,2013-06-23 06:17:00,
2013-06-23 02:22:00,65.3,62.1,30.20,WNW,293,5.0,6.0,89,0.00,,,0.00,meteohub,2013-06-23 06:22:00,
2013-06-23 02:27:00,65.1,61.9,30.19,WNW,293,7.0,7.0,89,0.00,,,0.00,meteohub,2013-06-23 06:27:00,
2013-06-23 02:32:00,65.1,61.9,30.19,West,270,6.0,7.0,89,0.00,,,0.00,meteohub,2013-06-23 06:32:00,
2013-06-23 02:37:00,65.1,61.9,30.19,WNW,293,4.0,7.0,89,0.00,,,0.00,meteohub,2013-06-23 06:37:00,
2013-06-23 02:42:00,65.1,61.9,30.19,WSW,248,2.0,7.0,89,0.00,,,0.00,meteohub,2013-06-23 06:42:00,
2013-06-23 02:47:00,65.1,61.9,30.19,NW,315,5.0,6.0,89,0.00,,,0.00,meteohub,2013-06-23 06:47:00,
2013-06-23 02:52:00,64.9,61.7,30.19,WSW,248,4.0,5.0,89,0.00,,,0.00,meteohub,2013-06-23 06:52:00,
2013-06-23 02:57:00,64.9,61.7,30.19,WSW,248,4.0,5.0,89,0.00,,,0.00,meteohub,2013-06-23 06:57:00,
2013-06-23 03:02:00,64.9,61.7,30.19,West,270,4.0,6.0,89,0.00,,,0.00,meteohub,2013-06-23 07:02:00,
2013-06-23 03:07:00,64.9,61.7,30.18,WSW,248,3.0,6.0,89,0.00,,,0.00,meteohub,2013-06-23 07:07:00,
2013-06-23 03:12:00,64.9,61.7,30.18,WSW,248,3.0,4.0,89,0.00,,,0.00,meteohub,2013-06-23 07:12:00,
2013-06-23 03:17:00,64.9,61.7,30.18,WSW,248,4.0,4.0,89,0.00,,,0.00,meteohub,2013-06-23 07:17:00,
2013-06-23 03:22:00,64.9,61.7,30.18,West,270,5.0,5.0,89,0.00,,,0.00,meteohub,2013-06-23 07:22:00,
2013-06-23 03:27:00,65.1,61.9,30.18,West,270,4.0,5.0,89,0.00,,,0.00,meteohub,2013-06-23 07:27:00,
2013-06-23 03:32:00,64.9,61.7,30.18,West,270,6.0,6.0,89,0.00,,,0.00,meteohub,2013-06-23 07:32:00,
2013-06-23 03:37:00,65.1,61.9,30.18,WSW,248,6.0,6.0,89,0.00,,,0.00,meteohub,2013-06-23 07:37:00,
2013-06-23 03:42:00,65.1,61.9,30.18,WSW,248,5.0,6.0,89,0.00,,,0.00,meteohub,2013-06-23 07:42:00,
2013-06-23 03:47:00,64.9,61.7,30.17,West,270,6.0,7.0,89,0.00,,,0.00,meteohub,2013-06-23 07:47:00,
2013-06-23 03:52:00,64.9,61.7,30.17,WSW,248,6.0,7.0,89,0.00,,,0.00,meteohub,2013-06-23 07:52:00,
2013-06-23 03:57:00,64.9,61.7,30.17,WSW,248,8.0,9.0,89,0.00,,,0.00,meteohub,2013-06-23 07:57:00,
2013-06-23 04:02:00,64.9,61.7,30.17,West,270,4.0,9.0,89,0.00,,,0.00,meteohub,2013-06-23 08:02:00,
2013-06-23 04:07:00,64.9,61.7,30.17,WSW,248,6.0,8.0,89,0.00,,,0.00,meteohub,2013-06-23 08:07:00,
2013-06-23 04:12:00,64.8,61.5,30.17,WSW,248,8.0,8.0,89,0.00,,,0.00,meteohub,2013-06-23 08:12:00,
2013-06-23 04:17:00,64.9,61.7,30.17,West,270,7.0,8.0,89,0.00,,,0.00,meteohub,2013-06-23 08:17:00,
2013-06-23 04:22:00,64.9,61.7,30.17,West,270,4.0,8.0,89,0.00,,,0.00,meteohub,2013-06-23 08:22:00,
2013-06-23 04:27:00,64.9,61.7,30.17,WSW,248,6.0,8.0,89,0.00,,,0.00,meteohub,2013-06-23 08:27:00,
2013-06-23 04:32:00,64.9,61.7,30.17,West,270,5.0,7.0,89,0.00,,,0.00,meteohub,2013-06-23 08:32:00,
2013-06-23 04:37:00,64.9,61.7,30.17,West,270,7.0,9.0,89,0.00,,,0.00,meteohub,2013-06-23 08:37:00,
2013-06-23 04:42:00,64.9,61.7,30.17,West,270,8.0,9.0,89,0.00,,,0.00,meteohub,2013-06-23 08:42:00,
2013-06-23 04:47:00,64.9,61.7,30.17,WSW,248,6.0,8.0,89,0.00,,,0.00,meteohub,2013-06-23 08:47:00,
2013-06-23 04:52:00,64.8,61.5,30.17,West,270,5.0,8.0,89,0.00,,,0.00,meteohub,2013-06-23 08:52:00,
2013-06-23 04:57:00,64.9,61.7,30.17,West,270,4.0,8.0,89,0.00,,,0.00,meteohub,2013-06-23 08:57:00,
2013-06-23 05:02:00,64.8,61.5,30.17,West,270,5.0,7.0,89,0.00,,,0.00,meteohub,2013-06-23 09:02:00,
2013-06-23 05:07:00,64.9,61.7,30.18,West,270,9.0,9.0,89,0.00,,,0.00,meteohub,2013-06-23 09:07:00,
2013-06-23 05:12:00,64.8,61.5,30.18,West,270,6.0,9.0,89,0.00,,,0.00,meteohub,2013-06-23 09:12:00,
2013-06-23 05:17:00,64.9,61.7,30.18,West,270,7.0,9.0,89,0.00,,,0.00,meteohub,2013-06-23 09:17:00,
2013-06-23 05:22:00,64.9,61.7,30.18,West,270,9.0,9.0,89,0.00,,,0.00,meteohub,2013-06-23 09:22:00,
2013-06-23 05:27:00,64.9,61.3,30.18,WSW,248,5.0,9.0,88,0.00,,,0.00,meteohub,2013-06-23 09:27:00,
2013-06-23 05:32:00,64.9,61.3,30.18,West,270,6.0,9.0,88,0.00,,,0.00,meteohub,2013-06-23 09:32:00,
2013-06-23 05:37:00,65.1,61.5,30.18,WNW,293,7.0,9.0,88,0.00,,,0.00,meteohub,2013-06-23 09:37:00,
2013-06-23 05:42:00,65.1,61.5,30.18,ENE,68,7.0,9.0,88,0.00,,,0.00,meteohub,2013-06-23 09:42:00,
2013-06-23 05:47:00,65.3,61.3,30.18,West,270,5.0,9.0,87,0.00,,,0.00,meteohub,2013-06-23 09:47:00,
2013-06-23 05:52:00,65.5,61.9,30.18,WNW,293,9.0,9.0,88,0.00,,,0.00,meteohub,2013-06-23 09:52:00,
2013-06-23 05:57:00,65.5,61.5,30.18,West,270,7.0,9.0,87,0.00,,,0.00,meteohub,2013-06-23 09:57:00,
2013-06-23 06:02:00,65.7,61.7,30.18,West,270,8.0,9.0,87,0.00,,,0.00,meteohub,2013-06-23 10:02:00,
2013-06-23 06:07:00,65.8,61.9,30.18,West,270,6.0,9.0,87,0.00,,,0.00,meteohub,2013-06-23 10:07:00,
2013-06-23 06:12:00,65.8,61.9,30.18,West,270,6.0,8.0,87,0.00,,,0.00,meteohub,2013-06-23 10:12:00,
2013-06-23 06:17:00,66.0,61.7,30.18,West,270,7.0,8.0,86,0.00,,,0.00,meteohub,2013-06-23 10:17:00,
2013-06-23 06:22:00,66.4,62.1,30.18,WSW,248,5.0,7.0,86,0.00,,,0.00,meteohub,2013-06-23 10:22:00,
2013-06-23 06:27:00,66.4,62.1,30.18,West,270,6.0,7.0,86,0.00,,,0.00,meteohub,2013-06-23 10:27:00,
2013-06-23 06:32:00,66.4,62.1,30.18,West,270,5.0,9.0,86,0.00,,,0.00,meteohub,2013-06-23 10:32:00,
2013-06-23 06:37:00,66.6,62.2,30.18,WSW,248,4.0,9.0,86,0.00,,,0.00,meteohub,2013-06-23 10:37:00,
2013-06-23 06:42:00,66.6,62.2,30.18,WSW,248,3.0,9.0,86,0.00,,,0.00,meteohub,2013-06-23 10:42:00,
2013-06-23 06:47:00,66.7,62.4,30.18,WSW,248,5.0,9.0,86,0.00,,,0.00,meteohub,2013-06-23 10:47:00,
2013-06-23 06:52:00,67.1,62.8,30.18,WSW,248,4.0,11.0,86,0.00,,,0.00,meteohub,2013-06-23 10:52:00,
2013-06-23 06:57:00,67.1,62.8,30.18,WSW,248,4.0,11.0,86,0.00,,,0.00,meteohub,2013-06-23 10:57:00,
2013-06-23 07:02:00,67.3,63.0,30.18,West,270,7.0,7.0,86,0.00,,,0.00,meteohub,2013-06-23 11:02:00,
2013-06-23 07:07:00,67.3,63.0,30.19,WNW,293,5.0,7.0,86,0.00,,,0.00,meteohub,2013-06-23 11:07:00,
2013-06-23 07:12:00,67.8,63.5,30.19,West,270,9.0,9.0,86,0.00,,,0.00,meteohub,2013-06-23 11:12:00,
2013-06-23 07:17:00,67.8,63.5,30.19,WNW,293,8.0,9.0,86,0.00,,,0.00,meteohub,2013-06-23 11:17:00,
2013-06-23 07:22:00,68.0,63.7,30.19,WSW,248,9.0,9.0,86,0.00,,,0.00,meteohub,2013-06-23 11:22:00,
2013-06-23 07:27:00,68.2,63.9,30.19,West,270,7.0,9.0,86,0.00,,,0.00,meteohub,2013-06-23 11:27:00,
2013-06-23 07:32:00,68.2,63.9,30.19,West,270,6.0,9.0,86,0.00,,,0.00,meteohub,2013-06-23 11:32:00,
2013-06-23 07:37:00,68.5,63.9,30.19,West,270,7.0,9.0,85,0.00,,,0.00,meteohub,2013-06-23 11:37:00,
2013-06-23 07:42:00,68.7,64.0,30.19,West,270,8.0,10.0,85,0.00,,,0.00,meteohub,2013-06-23 11:42:00,
2013-06-23 07:47:00,68.9,63.9,30.19,WNW,293,8.0,10.0,84,0.00,,,0.00,meteohub,2013-06-23 11:47:00,
2013-06-23 07:52:00,69.1,64.0,30.19,WNW,293,11.0,11.0,84,0.00,,,0.00,meteohub,2013-06-23 11:52:00,
2013-06-23 07:57:00,69.4,64.4,30.19,NW,315,6.0,11.0,84,0.00,,,0.00,meteohub,2013-06-23 11:57:00,
2013-06-23 08:02:00,69.4,64.4,30.19,West,270,7.0,11.0,84,0.00,,,0.00,meteohub,2013-06-23 12:02:00,
2013-06-23 08:07:00,69.8,64.8,30.19,WNW,293,7.0,11.0,84,0.00,,,0.00,meteohub,2013-06-23 12:07:00,
2013-06-23 08:12:00,70.0,64.6,30.19,West,270,11.0,11.0,83,0.00,,,0.00,meteohub,2013-06-23 12:12:00,
2013-06-23 08:17:00,70.0,64.6,30.19,West,270,9.0,11.0,83,0.00,,,0.00,meteohub,2013-06-23 12:17:00,
2013-06-23 08:22:00,69.8,64.4,30.19,West,270,7.0,11.0,83,0.00,,,0.00,meteohub,2013-06-23 12:22:00,
2013-06-23 08:27:00,70.2,64.8,30.19,West,270,8.0,11.0,83,0.00,,,0.00,meteohub,2013-06-23 12:27:00,
2013-06-23 08:32:00,70.2,64.8,30.19,NW,315,8.0,9.0,83,0.00,,,0.00,meteohub,2013-06-23 12:32:00,
2013-06-23 08:37:00,70.2,64.8,30.19,West,270,7.0,9.0,83,0.00,,,0.00,meteohub,2013-06-23 12:37:00,
2013-06-23 08:42:00,70.5,65.1,30.19,West,270,7.0,9.0,83,0.00,,,0.00,meteohub,2013-06-23 12:42:00,
2013-06-23 08:47:00,70.3,64.6,30.20,West,270,7.0,9.0,82,0.00,,,0.00,meteohub,2013-06-23 12:47:00,
2013-06-23 08:52:00,70.7,64.9,30.20,West,270,7.0,9.0,82,0.00,,,0.00,meteohub,2013-06-23 12:52:00,
2013-06-23 08:57:00,70.5,64.8,30.20,SW,225,4.0,9.0,82,0.00,,,0.00,meteohub,2013-06-23 12:57:00,
2013-06-23 09:02:00,71.1,65.3,30.20,WSW,248,2.0,9.0,82,0.00,,,0.00,meteohub,2013-06-23 13:02:00,
2013-06-23 09:07:00,71.1,65.3,30.20,WNW,293,9.0,9.0,82,0.00,,,0.00,meteohub,2013-06-23 13:07:00,
2013-06-23 09:12:00,71.1,64.9,30.20,NW,315,9.0,9.0,81,0.00,,,0.00,meteohub,2013-06-23 13:12:00,
2013-06-23 09:17:00,71.2,65.1,30.20,West,270,5.0,9.0,81,0.00,,,0.00,meteohub,2013-06-23 13:17:00,
2013-06-23 09:22:00,71.4,65.3,30.20,ESE,113,4.0,9.0,81,0.00,,,0.00,meteohub,2013-06-23 13:22:00,
2013-06-23 09:27:00,71.8,65.3,30.20,WNW,293,10.0,10.0,80,0.00,,,0.00,meteohub,2013-06-23 13:27:00,
2013-06-23 09:32:00,71.8,65.3,30.20,West,270,13.0,13.0,80,0.00,,,0.00,meteohub,2013-06-23 13:32:00,
2013-06-23 09:37:00,71.8,64.9,30.20,WNW,293,11.0,13.0,79,0.00,,,0.00,meteohub,2013-06-23 13:37:00,
2013-06-23 09:42:00,72.1,65.3,30.20,NNW,338,10.0,13.0,79,0.00,,,0.00,meteohub,2013-06-23 13:42:00,
2013-06-23 09:47:00,72.0,65.1,30.20,West,270,11.0,13.0,79,0.00,,,0.00,meteohub,2013-06-23 13:47:00,
2013-06-23 09:52:00,72.1,64.9,30.20,NW,315,13.0,13.0,78,0.00,,,0.00,meteohub,2013-06-23 13:52:00,
2013-06-23 09:57:00,72.5,65.3,30.20,North,0,6.0,13.0,78,0.00,,,0.00,meteohub,2013-06-23 13:57:00,
2013-06-23 10:03:00,72.5,64.9,30.19,West,270,6.0,13.0,77,0.00,,,0.00,meteohub,2013-06-23 14:03:00,
2013-06-23 10:08:00,72.7,65.5,30.19,NNE,23,9.0,13.0,78,0.00,,,0.00,meteohub,2013-06-23 14:08:00,
2013-06-23 10:13:00,72.9,64.8,30.19,NNW,338,11.0,13.0,76,0.00,,,0.00,meteohub,2013-06-23 14:13:00,
2013-06-23 10:18:00,72.5,64.9,30.19,NW,315,9.0,13.0,77,0.00,,,0.00,meteohub,2013-06-23 14:18:00,
2013-06-23 10:23:00,72.9,65.3,30.19,North,0,5.0,13.0,77,0.00,,,0.00,meteohub,2013-06-23 14:23:00,
2013-06-23 10:28:00,72.9,65.3,30.19,WNW,293,10.0,12.0,77,0.00,,,0.00,meteohub,2013-06-23 14:28:00,
2013-06-23 10:34:00,73.0,65.5,30.19,West,270,8.0,10.0,77,0.00,,,0.00,meteohub,2013-06-23 14:34:00,
2013-06-23 10:39:00,73.2,65.7,30.19,NW,315,7.0,10.0,77,0.00,,,0.00,meteohub,2013-06-23 14:39:00,
2013-06-23 10:44:00,73.4,65.3,30.19,NW,315,10.0,10.0,76,0.00,,,0.00,meteohub,2013-06-23 14:44:00,
2013-06-23 10:49:00,73.6,65.8,30.19,WNW,293,8.0,10.0,77,0.00,,,0.00,meteohub,2013-06-23 14:49:00,
2013-06-23 10:54:00,73.4,65.3,30.19,WNW,293,8.0,10.0,76,0.00,,,0.00,meteohub,2013-06-23 14:54:00,
2013-06-23 10:59:00,73.6,65.5,30.19,NNW,338,9.0,11.0,76,0.00,,,0.00,meteohub,2013-06-23 14:59:00,
2013-06-23 11:04:00,74.3,66.2,30.19,WNW,293,12.0,12.0,76,0.00,,,0.00,meteohub,2013-06-23 15:04:00,
2013-06-23 11:09:00,74.7,66.6,30.19,NNW,338,7.0,11.0,76,0.00,,,0.00,meteohub,2013-06-23 15:09:00,
2013-06-23 11:15:00,75.0,66.9,30.19,South,180,6.0,12.0,76,0.00,,,0.00,meteohub,2013-06-23 15:15:00,
2013-06-23 11:20:00,75.4,66.9,30.19,West,270,7.0,12.0,75,0.00,,,0.00,meteohub,2013-06-23 15:20:00,
2013-06-23 11:25:00,75.7,66.4,30.18,West,270,11.0,12.0,73,0.00,,,0.00,meteohub,2013-06-23 15:25:00,
2013-06-23 11:30:00,75.9,66.6,30.18,West,270,10.0,13.0,73,0.00,,,0.00,meteohub,2013-06-23 15:30:00,
2013-06-23 11:35:00,76.1,66.7,30.18,West,270,8.0,13.0,73,0.00,,,0.00,meteohub,2013-06-23 15:35:00,
2013-06-23 11:40:00,76.3,66.9,30.18,NW,315,4.0,13.0,73,0.00,,,0.00,meteohub,2013-06-23 15:40:00,
2013-06-23 11:45:00,77.0,68.0,30.18,West,270,7.0,13.0,74,0.00,,,0.00,meteohub,2013-06-23 15:45:00,
2013-06-23 11:50:00,77.5,68.5,30.18,WSW,248,9.0,13.0,74,0.00,,,0.00,meteohub,2013-06-23 15:50:00,
2013-06-23 11:56:00,78.1,69.1,30.18,WSW,248,8.0,9.0,74,0.00,,,0.00,meteohub,2013-06-23 15:56:00,
2013-06-23 12:01:00,78.3,68.9,30.18,WSW,248,6.0,10.0,73,0.00,,,0.00,meteohub,2013-06-23 16:01:00,
2013-06-23 12:06:00,78.4,69.1,30.18,SW,225,9.0,10.0,73,0.00,,,0.00,meteohub,2013-06-23 16:06:00,
2013-06-23 12:11:00,78.4,69.1,30.18,SW,225,9.0,10.0,73,0.00,,,0.00,meteohub,2013-06-23 16:11:00,
2013-06-23 12:16:00,78.3,68.5,30.18,SW,225,6.0,9.0,72,0.00,,,0.00,meteohub,2013-06-23 16:16:00,
2013-06-23 12:21:00,78.3,68.5,30.18,SSW,203,6.0,9.0,72,0.00,,,0.00,meteohub,2013-06-23 16:21:00,
2013-06-23 12:26:00,78.4,68.7,30.18,SW,225,7.0,9.0,72,0.00,,,0.00,meteohub,2013-06-23 16:26:00,
2013-06-23 12:32:00,79.0,69.6,30.18,SSW,203,4.0,7.0,73,0.00,,,0.00,meteohub,2013-06-23 16:32:00,
2013-06-23 12:37:00,79.3,70.0,30.18,WSW,248,4.0,8.0,73,0.00,,,0.00,meteohub,2013-06-23 16:37:00,
2013-06-23 12:42:00,79.7,70.3,30.17,SW,225,9.0,9.0,73,0.00,,,0.00,meteohub,2013-06-23 16:42:00,
2013-06-23 12:47:00,80.1,70.2,30.17,WSW,248,12.0,12.0,72,0.00,,,0.00,meteohub,2013-06-23 16:47:00,
2013-06-23 12:52:00,80.2,70.0,30.17,NW,315,15.0,15.0,71,0.00,,,0.00,meteohub,2013-06-23 16:52:00,
2013-06-23 12:57:00,80.4,68.9,30.17,WSW,248,11.0,15.0,68,0.00,,,0.00,meteohub,2013-06-23 16:57:00,
2013-06-23 12:58:00,80.4,68.9,30.17,West,270,9.0,15.0,68,0.00,,,0.00,meteohub,2013-06-23 16:58:00,
2013-06-23 12:59:00,80.4,68.9,30.17,West,270,9.0,15.0,68,0.00,,,0.00,meteohub,2013-06-23 16:59:00,
2013-06-23 13:00:00,80.4,68.9,30.17,West,270,9.0,15.0,68,0.00,,,0.00,meteohub,2013-06-23 17:00:00,
2013-06-23 13:05:00,80.8,69.3,30.17,NW,315,8.0,15.0,68,0.00,,,0.00,meteohub,2013-06-23 17:05:00,
2013-06-23 13:07:00,80.8,69.3,30.17,SW,225,12.0,15.0,68,0.00,,,0.00,meteohub,2013-06-23 17:07:00,
2013-06-23 13:12:00,80.6,69.1,30.17,West,270,11.0,14.0,68,0.00,,,0.00,meteohub,2013-06-23 17:12:00,
2013-06-23 13:17:00,80.8,68.7,30.17,NNW,338,11.0,14.0,67,0.00,,,0.00,meteohub,2013-06-23 17:17:00,
2013-06-23 13:22:00,80.4,68.9,30.17,WSW,248,11.0,15.0,68,0.00,,,0.00,meteohub,2013-06-23 17:22:00,
2013-06-23 13:27:00,80.4,68.5,30.16,NW,315,7.0,15.0,67,0.00,,,0.00,meteohub,2013-06-23 17:27:00,
2013-06-23 13:32:00,80.4,68.5,30.16,West,270,16.0,16.0,67,0.00,,,0.00,meteohub,2013-06-23 17:32:00,
2013-06-23 13:37:00,80.4,68.5,30.16,WNW,293,16.0,16.0,67,0.00,,,0.00,meteohub,2013-06-23 17:37:00,
2013-06-23 13:42:00,80.8,69.3,30.16,West,270,16.0,16.0,68,0.00,,,0.00,meteohub,2013-06-23 17:42:00,
2013-06-23 13:47:00,81.0,68.9,30.16,WNW,293,16.0,16.0,67,0.00,,,0.00,meteohub,2013-06-23 17:47:00,
2013-06-23 13:52:00,81.1,69.6,30.16,WNW,293,13.0,16.0,68,0.00,,,0.00,meteohub,2013-06-23 17:52:00,
2013-06-23 13:57:00,81.7,70.2,30.16,WSW,248,13.0,16.0,68,0.00,,,0.00,meteohub,2013-06-23 17:57:00,
2013-06-23 14:02:00,82.4,70.3,30.15,West,270,14.0,16.0,67,0.00,,,0.00,meteohub,2013-06-23 18:02:00,
2013-06-23 14:07:00,82.6,70.5,30.15,WNW,293,15.0,16.0,67,0.00,,,0.00,meteohub,2013-06-23 18:07:00,
2013-06-23 14:12:00,82.6,70.0,30.15,West,270,7.0,16.0,66,0.00,,,0.00,meteohub,2013-06-23 18:12:00,
2013-06-23 14:17:00,82.6,69.6,30.15,WNW,293,13.0,16.0,65,0.00,,,0.00,meteohub,2013-06-23 18:17:00,
2013-06-23 14:22:00,82.4,69.4,30.15,WSW,248,8.0,17.0,65,0.00,,,0.00,meteohub,2013-06-23 18:22:00,
2013-06-23 14:27:00,82.9,70.3,30.15,SW,225,9.0,17.0,66,0.00,,,0.00,meteohub,2013-06-23 18:27:00,
2013-06-23 14:32:00,83.1,70.2,30.15,West,270,15.0,15.0,65,0.00,,,0.00,meteohub,2013-06-23 18:32:00,
2013-06-23 14:37:00,82.8,69.3,30.15,NW,315,11.0,15.0,64,0.00,,,0.00,meteohub,2013-06-23 18:37:00,
2013-06-23 14:42:00,82.9,69.4,30.14,WSW,248,10.0,18.0,64,0.00,,,0.00,meteohub,2013-06-23 18:42:00,
2013-06-23 14:47:00,82.9,69.1,30.14,West,270,15.0,18.0,63,0.00,,,0.00,meteohub,2013-06-23 18:47:00,
2013-06-23 14:52:00,83.3,69.8,30.14,SW,225,14.0,18.0,64,0.00,,,0.00,meteohub,2013-06-23 18:52:00,
2013-06-23 14:57:00,83.1,69.6,30.14,West,270,10.0,17.0,64,0.00,,,0.00,meteohub,2013-06-23 18:57:00,
2013-06-23 15:02:00,82.9,69.4,30.14,WSW,248,18.0,18.0,64,0.00,,,0.00,meteohub,2013-06-23 19:02:00,
2013-06-23 15:07:00,82.6,69.1,30.14,WNW,293,14.0,18.0,64,0.00,,,0.00,meteohub,2013-06-23 19:07:00,
2013-06-23 15:12:00,82.4,69.1,30.14,WSW,248,15.0,18.0,64,0.00,,,0.00,meteohub,2013-06-23 19:12:00,
2013-06-23 15:17:00,82.0,69.1,30.14,NW,315,16.0,21.0,65,0.00,,,0.00,meteohub,2013-06-23 19:17:00,
2013-06-23 15:23:00,82.6,69.6,30.14,WSW,248,17.0,21.0,65,0.00,,,0.00,meteohub,2013-06-23 19:23:00,
2013-06-23 15:28:00,82.8,69.8,30.14,NW,315,16.0,21.0,65,0.00,,,0.00,meteohub,2013-06-23 19:28:00,
2013-06-23 15:33:00,83.5,70.9,30.14,SW,225,8.0,17.0,66,0.00,,,0.00,meteohub,2013-06-23 19:33:00,
2013-06-23 15:38:00,83.8,70.3,30.14,West,270,20.0,20.0,64,0.00,,,0.00,meteohub,2013-06-23 19:38:00,
2013-06-23 15:43:00,83.7,70.2,30.14,West,270,15.0,20.0,64,0.00,,,0.00,meteohub,2013-06-23 19:43:00,
2013-06-23 15:48:00,83.3,69.8,30.14,West,270,18.0,20.0,64,0.00,,,0.00,meteohub,2013-06-23 19:48:00,
2013-06-23 15:53:00,83.3,70.3,30.14,WSW,248,14.0,20.0,65,0.00,,,0.00,meteohub,2013-06-23 19:53:00,
2013-06-23 15:58:00,83.5,70.0,30.14,NW,315,13.0,20.0,64,0.00,,,0.00,meteohub,2013-06-23 19:58:00,
2013-06-23 16:03:00,83.7,70.2,30.12,West,270,14.0,20.0,64,0.00,,,0.00,meteohub,2013-06-23 20:03:00,
2013-06-23 16:08:00,83.3,69.8,30.12,WNW,293,15.0,21.0,64,0.00,,,0.00,meteohub,2013-06-23 20:08:00,
2013-06-23 16:13:00,83.1,69.6,30.12,WSW,248,21.0,21.0,64,0.00,,,0.00,meteohub,2013-06-23 20:13:00,
2013-06-23 16:19:00,83.1,69.6,30.12,WSW,248,19.0,21.0,64,0.00,,,0.00,meteohub,2013-06-23 20:19:00,
2013-06-23 16:24:00,82.9,70.0,30.13,WSW,248,14.0,23.0,65,0.00,,,0.00,meteohub,2013-06-23 20:24:00,
2013-06-23 16:29:00,83.3,69.8,30.13,West,270,11.0,23.0,64,0.00,,,0.00,meteohub,2013-06-23 20:29:00,
2013-06-23 16:34:00,83.5,70.0,30.13,West,270,11.0,23.0,64,0.00,,,0.00,meteohub,2013-06-23 20:34:00,
2013-06-23 16:39:00,83.5,70.5,30.13,WSW,248,20.0,21.0,65,0.00,,,0.00,meteohub,2013-06-23 20:39:00,
2013-06-23 16:44:00,83.5,70.5,30.12,WSW,248,17.0,19.0,65,0.00,,,0.00,meteohub,2013-06-23 20:44:00,
2013-06-23 16:49:00,83.5,70.5,30.12,West,270,9.0,20.0,65,0.00,,,0.00,meteohub,2013-06-23 20:49:00,
2013-06-23 16:54:00,83.7,70.2,30.12,West,270,22.0,22.0,64,0.00,,,0.00,meteohub,2013-06-23 20:54:00,
2013-06-23 16:59:00,83.5,70.5,30.12,West,270,19.0,19.0,65,0.00,,,0.00,meteohub,2013-06-23 20:59:00,
2013-06-23 17:05:00,83.3,70.3,30.11,West,270,12.0,22.0,65,0.00,,,0.00,meteohub,2013-06-23 21:05:00,
2013-06-23 17:10:00,82.9,70.0,30.11,SSW,203,13.0,22.0,65,0.00,,,0.00,meteohub,2013-06-23 21:10:00,
2013-06-23 17:15:00,83.3,70.3,30.11,WSW,248,11.0,19.0,65,0.00,,,0.00,meteohub,2013-06-23 21:15:00,
2013-06-23 17:20:00,83.3,70.7,30.11,NW,315,17.0,19.0,66,0.00,,,0.00,meteohub,2013-06-23 21:20:00,
2013-06-23 17:25:00,82.8,70.2,30.11,WNW,293,9.0,17.0,66,0.00,,,0.00,meteohub,2013-06-23 21:25:00,
2013-06-23 17:30:00,82.9,70.3,30.11,NW,315,18.0,18.0,66,0.00,,,0.00,meteohub,2013-06-23 21:30:00,
2013-06-23 17:35:00,82.6,70.0,30.11,West,270,14.0,18.0,66,0.00,,,0.00,meteohub,2013-06-23 21:35:00,
2013-06-23 17:40:00,82.6,70.5,30.11,WSW,248,12.0,18.0,67,0.00,,,0.00,meteohub,2013-06-23 21:40:00,
2013-06-23 17:45:00,82.4,70.3,30.10,NW,315,15.0,18.0,67,0.00,,,0.00,meteohub,2013-06-23 21:45:00,
2013-06-23 17:50:00,82.4,70.7,30.10,WSW,248,9.0,15.0,68,0.00,,,0.00,meteohub,2013-06-23 21:50:00,
2013-06-23 17:56:00,82.6,70.9,30.10,WSW,248,12.0,15.0,68,0.00,,,0.00,meteohub,2013-06-23 21:56:00,
2013-06-23 18:01:00,82.2,70.5,30.10,West,270,16.0,16.0,68,0.00,,,0.00,meteohub,2013-06-23 22:01:00,
2013-06-23 18:06:00,81.7,70.2,30.10,WSW,248,13.0,18.0,68,0.00,,,0.00,meteohub,2013-06-23 22:06:00,
2013-06-23 18:11:00,81.5,70.3,30.10,West,270,16.0,18.0,69,0.00,,,0.00,meteohub,2013-06-23 22:11:00,
2013-06-23 18:16:00,81.5,70.3,30.10,WSW,248,16.0,20.0,69,0.00,,,0.00,meteohub,2013-06-23 22:16:00,
2013-06-23 18:21:00,81.1,70.0,30.10,West,270,19.0,20.0,69,0.00,,,0.00,meteohub,2013-06-23 22:21:00,
2013-06-23 18:26:00,81.0,69.8,30.10,West,270,18.0,20.0,69,0.00,,,0.00,meteohub,2013-06-23 22:26:00,
2013-06-23 18:31:00,80.8,69.6,30.10,ENE,68,20.0,20.0,69,0.00,,,0.00,meteohub,2013-06-23 22:31:00,
2013-06-23 18:36:00,80.2,69.6,30.10,West,270,13.0,20.0,70,0.00,,,0.00,meteohub,2013-06-23 22:36:00,
2013-06-23 18:41:00,80.4,69.8,30.10,WSW,248,16.0,20.0,70,0.00,,,0.00,meteohub,2013-06-23 22:41:00,
2013-06-23 18:46:00,80.2,70.0,30.10,West,270,22.0,22.0,71,0.00,,,0.00,meteohub,2013-06-23 22:46:00,
2013-06-23 18:52:00,80.1,69.8,30.10,West,270,15.0,22.0,71,0.00,,,0.00,meteohub,2013-06-23 22:52:00,
2013-06-23 18:57:00,80.1,70.2,30.10,West,270,17.0,22.0,72,0.00,,,0.00,meteohub,2013-06-23 22:57:00,
2013-06-23 19:02:00,79.9,70.0,30.10,West,270,15.0,22.0,72,0.00,,,0.00,meteohub,2013-06-23 23:02:00,
2013-06-23 19:07:00,80.1,70.2,30.10,NW,315,18.0,22.0,72,0.00,,,0.00,meteohub,2013-06-23 23:07:00,
2013-06-23 19:12:00,79.5,69.6,30.10,WSW,248,13.0,18.0,72,0.00,,,0.00,meteohub,2013-06-23 23:12:00,
2013-06-23 19:17:00,79.3,69.4,30.10,WNW,293,11.0,21.0,72,0.00,,,0.00,meteohub,2013-06-23 23:17:00,
2013-06-23 19:22:00,79.2,69.3,30.10,WSW,248,13.0,21.0,72,0.00,,,0.00,meteohub,2013-06-23 23:22:00,
2013-06-23 19:27:00,78.8,69.1,30.09,SW,225,15.0,18.0,72,0.00,,,0.00,meteohub,2013-06-23 23:27:00,
2013-06-23 19:32:00,78.6,69.3,30.09,WSW,248,11.0,18.0,73,0.00,,,0.00,meteohub,2013-06-23 23:32:00,
2013-06-23 19:37:00,78.3,69.3,30.09,WNW,293,15.0,15.0,74,0.00,,,0.00,meteohub,2013-06-23 23:37:00,
2013-06-23 19:42:00,77.7,69.1,30.09,WSW,248,14.0,17.0,75,0.00,,,0.00,meteohub,2013-06-23 23:42:00,
2013-06-23 19:47:00,77.0,68.5,30.10,WSW,248,20.0,20.0,75,0.00,,,0.00,meteohub,2013-06-23 23:47:00,
2013-06-23 19:52:00,76.8,68.7,30.10,West,270,14.0,17.0,76,0.00,,,0.00,meteohub,2013-06-23 23:52:00,
2013-06-23 19:57:00,75.9,68.2,30.10,West,270,23.0,23.0,77,0.00,,,0.00,meteohub,2013-06-23 23:57:00,
2013-06-23 20:02:00,75.2,67.8,30.10,SW,225,17.0,23.0,78,0.00,,,0.00,meteohub,2013-06-24 00:02:00,
2013-06-23 20:07:00,74.7,67.6,30.10,WSW,248,11.0,23.0,79,0.00,,,0.00,meteohub,2013-06-24 00:07:00,
2013-06-23 20:12:00,74.7,67.6,30.10,West,270,15.0,23.0,79,0.00,,,0.00,meteohub,2013-06-24 00:12:00,
2013-06-23 20:17:00,73.9,67.5,30.10,West,270,13.0,17.0,80,0.00,,,0.00,meteohub,2013-06-24 00:17:00,
2013-06-23 20:22:00,73.6,67.5,30.10,WSW,248,10.0,15.0,81,0.00,,,0.00,meteohub,2013-06-24 00:22:00,
2013-06-23 20:27:00,73.4,67.3,30.11,WNW,293,11.0,15.0,81,0.00,,,0.00,meteohub,2013-06-24 00:27:00,
2013-06-23 20:32:00,73.2,67.5,30.11,West,270,13.0,15.0,82,0.00,,,0.00,meteohub,2013-06-24 00:32:00,
2013-06-23 20:37:00,72.9,67.1,30.11,WNW,293,12.0,13.0,82,0.00,,,0.00,meteohub,2013-06-24 00:37:00,
2013-06-23 20:42:00,72.5,66.7,30.11,West,270,9.0,13.0,82,0.00,,,0.00,meteohub,2013-06-24 00:42:00,
2013-06-23 20:47:00,72.1,66.7,30.10,West,270,9.0,13.0,83,0.00,,,0.00,meteohub,2013-06-24 00:47:00,
2013-06-23 20:52:00,72.0,66.6,30.10,WNW,293,7.0,13.0,83,0.00,,,0.00,meteohub,2013-06-24 00:52:00,
2013-06-23 20:57:00,71.6,66.2,30.10,NW,315,11.0,13.0,83,0.00,,,0.00,meteohub,2013-06-24 00:57:00,
2013-06-23 21:02:00,71.6,66.6,30.10,West,270,10.0,13.0,84,0.00,,,0.00,meteohub,2013-06-24 01:02:00,
2013-06-23 21:07:00,71.2,66.2,30.10,WNW,293,11.0,13.0,84,0.00,,,0.00,meteohub,2013-06-24 01:07:00,
2013-06-23 21:12:00,71.4,66.4,30.10,NW,315,10.0,14.0,84,0.00,,,0.00,meteohub,2013-06-24 01:12:00,
2013-06-23 21:17:00,71.1,66.0,30.10,WSW,248,8.0,14.0,84,0.00,,,0.00,meteohub,2013-06-24 01:17:00,
2013-06-23 21:22:00,71.1,66.4,30.10,NW,315,11.0,14.0,85,0.00,,,0.00,meteohub,2013-06-24 01:22:00,
2013-06-23 21:27:00,70.9,66.2,30.10,West,270,11.0,13.0,85,0.00,,,0.00,meteohub,2013-06-24 01:27:00,
2013-06-23 21:32:00,70.9,66.2,30.10,WSW,248,14.0,14.0,85,0.00,,,0.00,meteohub,2013-06-24 01:32:00,
2013-06-23 21:37:00,70.7,66.4,30.10,West,270,10.0,14.0,86,0.00,,,0.00,meteohub,2013-06-24 01:37:00,
2013-06-23 21:42:00,70.7,66.4,30.11,NNW,338,13.0,14.0,86,0.00,,,0.00,meteohub,2013-06-24 01:42:00,
2013-06-23 21:47:00,70.7,66.6,30.11,West,270,13.0,14.0,87,0.00,,,0.00,meteohub,2013-06-24 01:47:00,
2013-06-23 21:52:00,70.5,66.4,30.11,West,270,11.0,20.0,87,0.00,,,0.00,meteohub,2013-06-24 01:52:00,
2013-06-23 21:57:00,70.5,66.4,30.11,West,270,13.0,20.0,87,0.00,,,0.00,meteohub,2013-06-24 01:57:00,
2013-06-23 22:02:00,70.5,66.4,30.11,West,270,16.0,20.0,87,0.00,,,0.00,meteohub,2013-06-24 02:02:00,
2013-06-23 22:07:00,70.7,66.6,30.12,West,270,9.0,20.0,87,0.00,,,0.00,meteohub,2013-06-24 02:07:00,
2013-06-23 22:12:00,70.7,66.6,30.12,West,270,14.0,20.0,87,0.00,,,0.00,meteohub,2013-06-24 02:12:00,
2013-06-23 22:17:00,70.7,66.6,30.12,WNW,293,13.0,17.0,87,0.00,,,0.00,meteohub,2013-06-24 02:17:00,
2013-06-23 22:22:00,70.7,66.6,30.11,WSW,248,18.0,18.0,87,0.00,,,0.00,meteohub,2013-06-24 02:22:00,
2013-06-23 22:27:00,70.7,66.9,30.11,West,270,13.0,18.0,88,0.00,,,0.00,meteohub,2013-06-24 02:27:00,
2013-06-23 22:32:00,70.7,66.9,30.11,WSW,248,12.0,18.0,88,0.00,,,0.00,meteohub,2013-06-24 02:32:00,
2013-06-23 22:37:00,70.7,66.9,30.11,WSW,248,12.0,18.0,88,0.00,,,0.00,meteohub,2013-06-24 02:37:00,
2013-06-23 22:43:00,70.7,66.6,30.12,West,270,11.0,17.0,87,0.00,,,0.00,meteohub,2013-06-24 02:43:00,
2013-06-23 22:48:00,70.7,66.6,30.12,West,270,12.0,17.0,87,0.00,,,0.00,meteohub,2013-06-24 02:48:00,
2013-06-23 22:53:00,70.7,66.6,30.12,West,270,14.0,15.0,87,0.00,,,0.00,meteohub,2013-06-24 02:53:00,
2013-06-23 22:58:00,70.5,66.4,30.12,SW,225,13.0,16.0,87,0.00,,,0.00,meteohub,2013-06-24 02:58:00,
2013-06-23 23:03:00,70.5,66.4,30.11,West,270,11.0,16.0,87,0.00,,,0.00,meteohub,2013-06-24 03:03:00,
2013-06-23 23:08:00,70.5,66.4,30.11,WSW,248,12.0,14.0,87,0.00,,,0.00,meteohub,2013-06-24 03:08:00,
2013-06-23 23:13:00,70.3,66.2,30.11,WNW,293,13.0,16.0,87,0.00,,,0.00,meteohub,2013-06-24 03:13:00,
2013-06-23 23:18:00,70.3,66.2,30.11,WSW,248,6.0,16.0,87,0.00,,,0.00,meteohub,2013-06-24 03:18:00,
2013-06-23 23:24:00,70.3,66.2,30.10,WNW,293,11.0,16.0,87,0.00,,,0.00,meteohub,2013-06-24 03:24:00,
2013-06-23 23:29:00,70.3,66.2,30.10,West,270,9.0,13.0,87,0.00,,,0.00,meteohub,2013-06-24 03:29:00,
2013-06-23 23:34:00,70.3,66.2,30.10,West,270,10.0,12.0,87,0.00,,,0.00,meteohub,2013-06-24 03:34:00,
2013-06-23 23:39:00,70.3,66.6,30.10,WNW,293,11.0,11.0,88,0.00,,,0.00,meteohub,2013-06-24 03:39:00,
2013-06-23 23:44:00,70.3,66.6,30.10,NW,315,9.0,10.0,88,0.00,,,0.00,meteohub,2013-06-24 03:44:00,
2013-06-23 23:49:00,70.3,66.6,30.10,WNW,293,9.0,11.0,88,0.00,,,0.00,meteohub,2013-06-24 03:49:00,
2013-06-23 23:54:00,70.3,66.6,30.10,West,270,9.0,11.0,88,0.00,,,0.00,meteohub,2013-06-24 03:54:00,
2013-06-23 23:59:00,70.3,66.6,30.10,West,270,10.0,11.0,88,0.00,,,0.00,meteohub,2013-06-24 03:59:00,